createdAt,value
2023-05-15T00:01:02.065Z,100538.55
2023-05-15T00:02:07.807Z,100540.64
2023-05-15T00:03:13.423Z,100538.03
2023-05-15T00:04:19.144Z,100540.3
2023-05-15T00:05:24.872Z,100530.98
2023-05-15T00:06:30.815Z,100531.99
2023-05-15T00:07:36.128Z,100529.72
2023-05-15T00:08:41.469Z,100536.55
2023-05-15T00:09:46.808Z,100532.73
2023-05-15T00:11:02.421Z,100537.7
2023-05-15T00:12:07.785Z,100532.73
2023-05-15T00:13:13.079Z,100532.25
2023-05-15T00:14:18.395Z,100534.6
2023-05-15T00:15:23.970Z,100529.97
2023-05-15T00:16:30.001Z,100534.83
2023-05-15T00:17:35.522Z,100533.48
2023-05-15T00:18:40.963Z,100539.78
2023-05-15T00:19:46.326Z,100539.38
2023-05-15T00:20:51.730Z,100533.34
2023-05-15T00:21:57.133Z,100540.3
2023-05-15T00:23:02.524Z,100540.79
2023-05-15T00:24:07.841Z,100535.02
2023-05-15T00:25:13.174Z,100539.04
2023-05-15T00:26:18.510Z,100535.75
2023-05-15T00:27:23.846Z,100531.92
2023-05-15T00:28:29.270Z,100528.82
2023-05-15T00:29:34.642Z,100529.64
2023-05-15T00:30:40.017Z,100521.25
2023-05-15T00:31:45.493Z,100523.45
2023-05-15T00:32:51.019Z,100518.83
2023-05-15T00:33:56.512Z,100513.12
2023-05-15T00:35:01.914Z,100518.08
2023-05-15T00:36:07.231Z,100513.45
2023-05-15T00:37:12.552Z,100512
2023-05-15T00:38:17.888Z,100514.8
2023-05-15T00:39:23.255Z,100516.62
2023-05-15T00:40:28.601Z,100512.71
2023-05-15T00:41:33.973Z,100514.47
2023-05-15T00:42:39.304Z,100520.25
2023-05-15T00:43:44.681Z,100510.11
2023-05-15T00:44:50.005Z,100510.52
2023-05-15T00:45:55.335Z,100511.94
2023-05-15T00:47:00.862Z,100507.16
2023-05-15T00:48:06.529Z,100509.25
2023-05-15T00:49:11.868Z,100507.09
2023-05-15T00:50:17.199Z,100508.43
2023-05-15T00:51:22.532Z,100513.8
2023-05-15T00:52:27.862Z,100515.73
2023-05-15T00:53:33.308Z,100516.48
2023-05-15T00:54:39.049Z,100511.53
2023-05-15T00:55:44.401Z,100517.31
2023-05-15T00:56:49.753Z,100517.75
2023-05-15T00:57:55.065Z,100521.33
2023-05-15T00:59:00.415Z,100520.77
2023-05-15T01:00:05.903Z,100514.21
2023-05-15T01:01:11.296Z,100513.28
2023-05-15T01:02:16.807Z,100515.55
2023-05-15T01:03:22.327Z,100519.09
2023-05-15T01:04:27.827Z,100515.22
2023-05-15T01:05:33.185Z,100516.97
2023-05-15T01:06:38.500Z,100520.59
2023-05-15T01:07:43.892Z,100522.34
2023-05-15T01:08:49.243Z,100528.16
2023-05-15T01:09:54.624Z,100530.51
2023-05-15T01:10:59.956Z,100530.17
2023-05-15T01:12:05.254Z,100531.84
2023-05-15T01:13:10.608Z,100530.92
2023-05-15T01:14:15.943Z,100523.8
2023-05-15T01:15:21.387Z,100519.25
2023-05-15T01:16:27.045Z,100515.63
2023-05-15T01:17:32.436Z,100518.31
2023-05-15T01:18:38.027Z,100518.65
2023-05-15T01:19:43.941Z,100520.43
2023-05-15T01:20:49.392Z,100522.19
2023-05-15T01:21:54.760Z,100519.99
2023-05-15T01:23:00.147Z,100505.75
2023-05-15T01:24:05.491Z,100502.54
2023-05-15T01:25:10.803Z,100496.27
2023-05-15T01:26:16.151Z,100500.3
2023-05-15T01:27:21.543Z,100487.7
2023-05-15T01:28:26.891Z,100485.42
2023-05-15T01:29:32.294Z,100475.2
2023-05-15T01:30:37.705Z,100469.91
2023-05-15T01:31:43.102Z,100468.98
2023-05-15T01:32:48.641Z,100470.52
2023-05-15T01:33:54.101Z,100466.48
2023-05-15T01:34:59.468Z,100467.56
2023-05-15T01:36:04.872Z,100468.16
2023-05-15T01:37:10.206Z,100468.08
2023-05-15T01:38:15.537Z,100463.72
2023-05-15T01:39:20.877Z,100465.14
2023-05-15T01:40:26.236Z,100468.64
2023-05-15T01:41:31.581Z,100467.75
2023-05-15T01:42:36.942Z,100467.83
2023-05-15T01:43:42.307Z,100467.42
2023-05-15T01:44:47.665Z,100466.56
2023-05-15T01:45:53.199Z,100467.98
2023-05-15T01:46:58.590Z,100466.08
2023-05-15T01:48:04.016Z,100465.55
2023-05-15T01:49:09.540Z,100464.21
2023-05-15T01:50:14.917Z,100457.09
2023-05-15T01:51:20.275Z,100456.41
2023-05-15T01:52:25.669Z,100451.64
2023-05-15T01:53:31.085Z,100456.08
2023-05-15T01:54:36.458Z,100448.95
2023-05-15T01:55:41.804Z,100447.83
2023-05-15T01:56:47.152Z,100450.44
2023-05-15T01:57:52.490Z,100434.85
2023-05-15T01:58:57.880Z,100438.11
2023-05-15T02:00:03.246Z,100433.51
2023-05-15T02:01:08.578Z,100434.93
2023-05-15T02:02:14.167Z,100429.97
2023-05-15T02:03:19.818Z,100425.45
2023-05-15T02:04:25.463Z,100428.03
2023-05-15T02:05:30.811Z,100416.47
2023-05-15T02:06:36.223Z,100422.17
2023-05-15T02:07:41.556Z,100422.98
2023-05-15T02:08:46.958Z,100420.91
2023-05-15T02:09:52.339Z,100420.3
2023-05-15T02:10:57.669Z,100417.21
2023-05-15T02:12:03.022Z,100407.41
2023-05-15T02:13:08.375Z,100401.3
2023-05-15T02:14:13.757Z,100399.23
2023-05-15T02:15:19.068Z,100404.72
2023-05-15T02:16:24.570Z,100393.23
2023-05-15T02:17:30.066Z,100397.59
2023-05-15T02:18:35.633Z,100391.89
2023-05-15T02:19:41.041Z,100393.73
2023-05-15T02:20:46.360Z,100392.3
2023-05-15T02:21:51.711Z,100395.21
2023-05-15T02:22:57.037Z,100389.02
2023-05-15T02:24:02.358Z,100395.48
2023-05-15T02:25:07.694Z,100392.23
2023-05-15T02:26:13.086Z,100385.59
2023-05-15T02:27:18.425Z,100388.69
2023-05-15T02:28:23.784Z,100381.9
2023-05-15T02:29:29.307Z,100381.3
2023-05-15T02:30:34.625Z,100386.14
2023-05-15T02:31:40.103Z,100387.16
2023-05-15T02:32:45.641Z,100391.62
2023-05-15T02:33:51.045Z,100387.59
2023-05-15T02:34:56.382Z,100384.66
2023-05-15T02:36:01.705Z,100383.32
2023-05-15T02:37:07.102Z,100380.38
2023-05-15T02:38:12.424Z,100385.27
2023-05-15T02:39:17.765Z,100379.7
2023-05-15T02:40:23.136Z,100373.84
2023-05-15T02:41:28.469Z,100375.08
2023-05-15T02:42:34.814Z,100372.58
2023-05-15T02:43:40.136Z,100373.92
2023-05-15T02:44:45.466Z,100375.34
2023-05-15T02:45:50.899Z,100375.45
2023-05-15T02:46:56.356Z,100371.84
2023-05-15T02:48:01.763Z,100367.81
2023-05-15T02:49:07.306Z,100374.11
2023-05-15T02:50:12.659Z,100370.98
2023-05-15T02:51:18.007Z,100367.41
2023-05-15T02:52:23.331Z,100354.55
2023-05-15T02:53:28.648Z,100358.16
2023-05-15T02:54:33.969Z,100355.81
2023-05-15T02:55:39.698Z,100353.66
2023-05-15T02:56:45.062Z,100355.48
2023-05-15T02:57:50.497Z,100350.52
2023-05-15T02:58:55.828Z,100350.85
2023-05-15T03:00:01.168Z,100343.13
2023-05-15T03:01:06.612Z,100343.24
2023-05-15T03:02:12.030Z,100345.81
2023-05-15T03:03:17.367Z,100345.59
2023-05-15T03:04:22.795Z,100345.59
2023-05-15T03:05:29.054Z,100341.98
2023-05-15T03:06:34.399Z,100336.34
2023-05-15T03:07:42.835Z,100337.34
2023-05-15T03:08:48.209Z,100337.54
2023-05-15T03:09:53.541Z,100336.61
2023-05-15T03:10:59.740Z,100332.17
2023-05-15T03:12:05.470Z,100327.7
2023-05-15T03:13:10.807Z,100326.36
2023-05-15T03:14:16.154Z,100317.08
2023-05-15T03:15:21.553Z,100313.46
2023-05-15T03:16:27.165Z,100311.19
2023-05-15T03:17:32.698Z,100303.55
2023-05-15T03:18:38.251Z,100301.87
2023-05-15T03:19:43.598Z,100301.87
2023-05-15T03:20:49.039Z,100297.77
2023-05-15T03:21:54.385Z,100298.7
2023-05-15T03:22:59.886Z,100293.33
2023-05-15T03:24:05.224Z,100286.09
2023-05-15T03:25:10.652Z,100288.45
2023-05-15T03:26:16.047Z,100286.56
2023-05-15T03:27:21.400Z,100288.28
2023-05-15T03:28:26.738Z,100290.56
2023-05-15T03:29:32.082Z,100296.75
2023-05-15T03:30:37.414Z,100291.79
2023-05-15T03:31:42.850Z,100292.23
2023-05-15T03:32:48.460Z,100294.64
2023-05-15T03:33:53.895Z,100297.93
2023-05-15T03:34:59.252Z,100296.48
2023-05-15T03:36:04.590Z,100291.63
2023-05-15T03:37:09.925Z,100301.84
2023-05-15T03:38:15.255Z,100298.15
2023-05-15T03:39:20.579Z,100295.88
2023-05-15T03:40:25.902Z,100302.91
2023-05-15T03:41:31.294Z,100299.16
2023-05-15T03:42:36.651Z,100305.59
2023-05-15T03:43:41.994Z,100320.28
2023-05-15T03:44:47.323Z,100313.66
2023-05-15T03:45:52.678Z,100319.55
2023-05-15T03:46:58.165Z,100323.57
2023-05-15T03:48:03.705Z,100314.91
2023-05-15T03:49:09.090Z,100315.33
2023-05-15T03:50:14.415Z,100320.37
2023-05-15T03:51:19.793Z,100333.46
2023-05-15T03:52:25.125Z,100338.26
2023-05-15T03:53:30.480Z,100336.06
2023-05-15T03:54:35.828Z,100331.02
2023-05-15T03:55:41.181Z,100321.3
2023-05-15T03:56:46.503Z,100320.48
2023-05-15T03:57:51.945Z,100320.03
2023-05-15T03:58:57.289Z,100317.03
2023-05-15T04:00:02.692Z,100325.17
2023-05-15T04:01:08.109Z,100325.28
2023-05-15T04:02:13.531Z,100328.75
2023-05-15T04:03:19.164Z,100327.55
2023-05-15T04:04:24.832Z,100319.62
2023-05-15T04:05:30.433Z,100322.92
2023-05-15T04:06:35.856Z,100321.19
2023-05-15T04:07:41.222Z,100321.13
2023-05-15T04:08:46.541Z,100319.13
2023-05-15T04:09:51.992Z,100325.75
2023-05-15T04:10:57.306Z,100318.55
2023-05-15T04:12:02.635Z,100311.43
2023-05-15T04:13:07.968Z,100307.16
2023-05-15T04:14:13.294Z,100312.27
2023-05-15T04:15:18.684Z,100308.24
2023-05-15T04:16:24.163Z,100306.24
2023-05-15T04:17:29.643Z,100307.42
2023-05-15T04:18:35.050Z,100302.98
2023-05-15T04:19:43.098Z,100295.63
2023-05-15T04:20:48.560Z,100297.72
2023-05-15T04:21:53.893Z,100289.75
2023-05-15T04:22:59.209Z,100289.83
2023-05-15T04:24:04.586Z,100297.72
2023-05-15T04:25:09.930Z,100297.06
2023-05-15T04:26:15.256Z,100293.7
2023-05-15T04:27:20.552Z,100292.52
2023-05-15T04:28:25.959Z,100287.26
2023-05-15T04:29:32.738Z,100279.56
2023-05-15T04:30:38.066Z,100276.95
2023-05-15T04:31:43.476Z,100274.36
2023-05-15T04:32:49.104Z,100277.97
2023-05-15T04:33:54.616Z,100279.91
2023-05-15T04:35:00.010Z,100275.97
2023-05-15T04:36:05.422Z,100275.97
2023-05-15T04:37:10.787Z,100276.23
2023-05-15T04:38:16.086Z,100279.73
2023-05-15T04:39:21.410Z,100270.21
2023-05-15T04:40:26.730Z,100276.98
2023-05-15T04:41:32.084Z,100273.69
2023-05-15T04:42:39.307Z,100273.89
2023-05-15T04:43:45.003Z,100270.35
2023-05-15T04:44:50.333Z,100268
2023-05-15T04:45:55.697Z,100267.51
2023-05-15T04:47:01.092Z,100262.55
2023-05-15T04:48:06.691Z,100258.61
2023-05-15T04:49:12.108Z,100258.69
2023-05-15T04:50:17.616Z,100259.95
2023-05-15T04:51:22.981Z,100249.74
2023-05-15T04:52:28.355Z,100252.86
2023-05-15T04:53:33.706Z,100250.17
2023-05-15T04:54:39.069Z,100249.35
2023-05-15T04:55:44.603Z,100244.48
2023-05-15T04:56:49.982Z,100247.35
2023-05-15T04:57:55.390Z,100243.98
2023-05-15T04:59:00.725Z,100230.98
2023-05-15T05:00:07.138Z,100229.47
2023-05-15T05:01:12.556Z,100241.21
2023-05-15T05:02:17.945Z,100229.41
2023-05-15T05:03:23.475Z,100234.95
2023-05-15T05:04:28.950Z,100233.95
2023-05-15T05:05:34.271Z,100238.66
2023-05-15T05:06:39.609Z,100234.62
2023-05-15T05:07:44.933Z,100229.82
2023-05-15T05:08:50.287Z,100228.32
2023-05-15T05:09:55.645Z,100225.47
2023-05-15T05:11:00.976Z,100226.48
2023-05-15T05:12:06.334Z,100227.93
2023-05-15T05:13:11.679Z,100229.08
2023-05-15T05:14:17.087Z,100231.28
2023-05-15T05:15:22.546Z,100228.16
2023-05-15T05:16:28.314Z,100235.87
2023-05-15T05:17:33.828Z,100231.44
2023-05-15T05:18:39.379Z,100231.36
2023-05-15T05:19:44.802Z,100231.77
2023-05-15T05:20:50.116Z,100227.49
2023-05-15T05:21:55.458Z,100228.83
2023-05-15T05:23:00.908Z,100219.03
2023-05-15T05:24:06.444Z,100220.05
2023-05-15T05:25:11.792Z,100213.75
2023-05-15T05:26:17.165Z,100210.66
2023-05-15T05:27:22.484Z,100211.32
2023-05-15T05:28:27.966Z,100212.33
2023-05-15T05:29:33.366Z,100207.73
2023-05-15T05:30:38.715Z,100209.59
2023-05-15T05:31:44.157Z,100205.64
2023-05-15T05:32:49.649Z,100198.94
2023-05-15T05:33:54.996Z,100198.61
2023-05-15T05:35:00.337Z,100196.7
2023-05-15T05:36:05.767Z,100186.55
2023-05-15T05:37:11.104Z,100186.88
2023-05-15T05:38:16.453Z,100192.76
2023-05-15T05:39:21.791Z,100186.38
2023-05-15T05:40:27.261Z,100183.59
2023-05-15T05:41:32.598Z,100184.63
2023-05-15T05:42:37.968Z,100178.41
2023-05-15T05:43:43.322Z,100174.64
2023-05-15T05:44:48.674Z,100177.41
2023-05-15T05:45:54.013Z,100174.91
2023-05-15T05:46:59.452Z,100171.47
2023-05-15T05:48:04.942Z,100173.98
2023-05-15T05:49:10.373Z,100177.76
2023-05-15T05:50:15.734Z,100170.56
2023-05-15T05:51:21.228Z,100173.25
2023-05-15T05:52:26.580Z,100168.89
2023-05-15T05:53:31.981Z,100174.67
2023-05-15T05:54:37.322Z,100168.78
2023-05-15T05:55:42.690Z,100170.64
2023-05-15T05:56:48.044Z,100174.34
2023-05-15T05:57:53.383Z,100173.81
2023-05-15T05:58:58.720Z,100171.98
2023-05-15T06:00:04.202Z,100171.24
2023-05-15T06:01:09.540Z,100166.37
2023-05-15T06:02:14.932Z,100169.8
2023-05-15T06:03:20.524Z,100168.7
2023-05-15T06:04:26.218Z,100166.21
2023-05-15T06:05:31.628Z,100166.7
2023-05-15T06:06:36.965Z,100161.34
2023-05-15T06:07:42.276Z,100163.61
2023-05-15T06:08:47.609Z,100164.09
2023-05-15T06:09:53.009Z,100160.08
2023-05-15T06:10:58.413Z,100160.76
2023-05-15T06:12:03.721Z,100151.63
2023-05-15T06:13:09.049Z,100156.66
2023-05-15T06:14:14.403Z,100157.39
2023-05-15T06:15:19.770Z,100153.38
2023-05-15T06:16:25.174Z,100156.83
2023-05-15T06:17:30.658Z,100150.01
2023-05-15T06:18:36.098Z,100151.55
2023-05-15T06:19:41.516Z,100159.17
2023-05-15T06:20:46.927Z,100152.63
2023-05-15T06:21:52.242Z,100145.93
2023-05-15T06:22:57.571Z,100144.67
2023-05-15T06:24:02.897Z,100152.72
2023-05-15T06:25:08.246Z,100149.35
2023-05-15T06:26:13.605Z,100144.09
2023-05-15T06:27:18.980Z,100145.66
2023-05-15T06:28:24.301Z,100147.11
2023-05-15T06:29:29.715Z,100143.58
2023-05-15T06:30:35.143Z,100143.17
2023-05-15T06:31:40.588Z,100136.55
2023-05-15T06:32:46.071Z,100129.92
2023-05-15T06:33:51.566Z,100129.44
2023-05-15T06:34:56.912Z,100133.78
2023-05-15T06:36:02.362Z,100130.09
2023-05-15T06:37:07.729Z,100132.25
2023-05-15T06:38:13.100Z,100132.85
2023-05-15T06:39:18.567Z,100132.11
2023-05-15T06:40:24.292Z,100127.23
2023-05-15T06:41:30.223Z,100125.08
2023-05-15T06:42:35.547Z,100124.81
2023-05-15T06:43:40.910Z,100115.94
2023-05-15T06:44:46.344Z,100121.39
2023-05-15T06:45:51.741Z,100113.83
2023-05-15T06:46:57.319Z,100118.7
2023-05-15T06:48:03.468Z,100118.87
2023-05-15T06:49:08.848Z,100118.34
2023-05-15T06:50:14.189Z,100115.8
2023-05-15T06:51:19.495Z,100112.98
2023-05-15T06:52:24.840Z,100112.22
2023-05-15T06:53:30.219Z,100116.66
2023-05-15T06:54:35.592Z,100114.47
2023-05-15T06:55:40.934Z,100106.94
2023-05-15T06:56:46.325Z,100104.53
2023-05-15T06:57:51.681Z,100104.86
2023-05-15T06:58:57.077Z,100110.8
2023-05-15T07:00:02.426Z,100101.52
2023-05-15T07:01:07.884Z,100098.07
2023-05-15T07:02:13.444Z,100099.08
2023-05-15T07:03:18.875Z,100099.33
2023-05-15T07:04:24.254Z,100099.41
2023-05-15T07:05:29.637Z,100103.44
2023-05-15T07:06:35.109Z,100099.94
2023-05-15T07:07:40.507Z,100093.72
2023-05-15T07:08:45.830Z,100100.02
2023-05-15T07:09:51.178Z,100092.98
2023-05-15T07:10:56.495Z,100094.66
2023-05-15T07:12:01.803Z,100089.29
2023-05-15T07:13:07.136Z,100089.38
2023-05-15T07:14:12.532Z,100089.2
2023-05-15T07:15:17.836Z,100085.46
2023-05-15T07:16:23.219Z,100083.84
2023-05-15T07:17:28.710Z,100084.86
2023-05-15T07:18:34.429Z,100082.17
2023-05-15T07:19:39.919Z,100081.77
2023-05-15T07:20:47.509Z,100080.5
2023-05-15T07:21:52.873Z,100071.94
2023-05-15T07:22:58.503Z,100074.05
2023-05-15T07:24:03.817Z,100070.92
2023-05-15T07:25:09.127Z,100070.52
2023-05-15T07:26:31.471Z,100069.02
2023-05-15T07:27:47.468Z,100068.36
2023-05-15T07:28:52.823Z,100070.35
2023-05-15T07:29:58.213Z,100068.57
2023-05-15T07:31:04.559Z,100066.33
2023-05-15T07:32:10.041Z,100067.51
2023-05-15T07:33:15.403Z,100064.83
2023-05-15T07:34:20.765Z,100069.02
2023-05-15T07:35:26.657Z,100072.05
2023-05-15T07:36:32.398Z,100073.39
2023-05-15T07:37:37.768Z,100064.55
2023-05-15T07:38:43.126Z,100066.82
2023-05-15T07:39:48.514Z,100063.32
2023-05-15T07:40:53.906Z,100060.72
2023-05-15T07:41:59.229Z,100062.8
2023-05-15T07:43:04.557Z,100059.7
2023-05-15T07:44:09.926Z,100060.64
2023-05-15T07:45:15.451Z,100060.45
2023-05-15T07:46:21.064Z,100063.13
2023-05-15T07:47:26.556Z,100064.01
2023-05-15T07:48:32.052Z,100051.58
2023-05-15T07:49:37.399Z,100057.63
2023-05-15T07:50:42.714Z,100055.44
2023-05-15T07:51:48.033Z,100055.96
2023-05-15T07:52:53.448Z,100055.49
2023-05-15T07:53:58.820Z,100051.42
2023-05-15T07:55:04.157Z,100050.68
2023-05-15T07:56:09.505Z,100051.42
2023-05-15T07:57:14.857Z,100048.33
2023-05-15T07:58:20.199Z,100047.39
2023-05-15T07:59:25.727Z,100056.09
2023-05-15T08:00:31.249Z,100045.56
2023-05-15T08:01:36.600Z,100053.73
2023-05-15T08:02:42.259Z,100048.57
2023-05-15T08:03:47.943Z,100053.61
2023-05-15T08:04:53.428Z,100042.36
2023-05-15T08:05:58.836Z,100044.96
2023-05-15T08:07:04.234Z,100039.08
2023-05-15T08:08:09.560Z,100039.35
2023-05-15T08:09:14.899Z,100041.1
2023-05-15T08:10:20.486Z,100038.53
2023-05-15T08:11:25.939Z,100038.94
2023-05-15T08:12:31.310Z,100039.95
2023-05-15T08:13:36.647Z,100038.53
2023-05-15T08:14:42.248Z,100042.03
2023-05-15T08:15:47.959Z,100033.17
2023-05-15T08:16:53.404Z,100033.98
2023-05-15T08:17:58.874Z,100030.57
2023-05-15T08:19:04.682Z,100032.73
2023-05-15T08:20:10.143Z,100027.37
2023-05-15T08:21:15.481Z,100026.55
2023-05-15T08:22:20.841Z,100030.57
2023-05-15T08:23:26.212Z,100026.03
2023-05-15T08:24:31.579Z,100022.66
2023-05-15T08:25:36.975Z,100030.7
2023-05-15T08:26:42.348Z,100023.59
2023-05-15T08:27:47.788Z,100027.7
2023-05-15T08:28:53.153Z,100017.98
2023-05-15T08:29:58.499Z,100010.95
2023-05-15T08:31:03.937Z,100013.47
2023-05-15T08:32:09.321Z,100014.4
2023-05-15T08:33:14.668Z,100013.87
2023-05-15T08:34:20.027Z,100011.11
2023-05-15T08:35:25.992Z,100011.72
2023-05-15T08:36:32.057Z,100006.03
2023-05-15T08:37:41.705Z,100007.05
2023-05-15T08:38:47.019Z,99998.56
2023-05-15T08:39:52.342Z,100004.45
2023-05-15T08:40:57.683Z,100002.17
2023-05-15T08:42:03.075Z,100005.09
2023-05-15T08:43:08.433Z,100005.42
2023-05-15T08:44:13.755Z,100006.84
2023-05-15T08:45:19.186Z,100010.55
2023-05-15T08:46:24.593Z,100004.58
2023-05-15T08:47:30.172Z,100005.34
2023-05-15T08:48:35.819Z,100012.87
2023-05-15T08:49:43.294Z,100014.73
2023-05-15T08:50:48.669Z,100014.95
2023-05-15T08:51:54.016Z,100006.16
2023-05-15T08:52:59.340Z,100007.17
2023-05-15T08:54:04.927Z,100007.02
2023-05-15T08:55:10.238Z,100003.89
2023-05-15T08:56:15.578Z,100007.91
2023-05-15T08:57:20.898Z,100004.33
2023-05-15T08:58:26.244Z,99999.98
2023-05-15T08:59:31.610Z,99996.61
2023-05-15T09:00:36.958Z,99994.02
2023-05-15T09:01:42.348Z,99999.78
2023-05-15T09:02:47.973Z,99992.27
2023-05-15T09:03:53.495Z,99998.97
2023-05-15T09:04:59.760Z,99997.71
2023-05-15T09:06:05.239Z,99994.7
2023-05-15T09:07:10.566Z,99987.39
2023-05-15T09:08:15.870Z,99997.11
2023-05-15T09:09:21.178Z,99993.28
2023-05-15T09:10:26.458Z,99989.8
2023-05-15T09:11:31.797Z,99990.64
2023-05-15T09:12:37.151Z,99982.08
2023-05-15T09:13:42.603Z,99982.08
2023-05-15T09:14:48.168Z,99979.59
2023-05-15T09:15:53.527Z,99980.73
2023-05-15T09:16:58.951Z,99981.27
2023-05-15T09:18:04.447Z,99982.36
2023-05-15T09:19:10.028Z,99974.64
2023-05-15T09:20:15.509Z,99972.04
2023-05-15T09:21:20.837Z,99968.5
2023-05-15T09:22:26.122Z,99965.91
2023-05-15T09:23:31.435Z,99974.19
2023-05-15T09:24:36.723Z,99975.53
2023-05-15T09:25:42.036Z,99964.56
2023-05-15T09:26:47.330Z,99961.47
2023-05-15T09:27:52.667Z,99964.84
2023-05-15T09:28:57.982Z,99974.64
2023-05-15T09:30:03.327Z,99965.98
2023-05-15T09:31:08.703Z,99964.64
2023-05-15T09:32:14.332Z,99959.72
2023-05-15T09:33:19.925Z,99955.13
2023-05-15T09:34:25.246Z,99959.81
2023-05-15T09:35:31.060Z,99963.59
2023-05-15T09:36:36.807Z,99955.63
2023-05-15T09:37:42.107Z,99953.27
2023-05-15T09:38:47.428Z,99957.57
2023-05-15T09:39:52.756Z,99954.94
2023-05-15T09:40:58.102Z,99956.28
2023-05-15T09:42:03.479Z,99951.93
2023-05-15T09:43:08.767Z,99950.59
2023-05-15T09:44:14.100Z,99950.7
2023-05-15T09:45:19.445Z,99954.94
2023-05-15T09:46:24.963Z,99950.1
2023-05-15T09:47:30.880Z,99952.78
2023-05-15T09:48:36.667Z,99955.05
2023-05-15T09:49:42.061Z,99954.41
2023-05-15T09:50:47.380Z,99958.51
2023-05-15T09:51:53.012Z,99952.53
2023-05-15T09:52:58.321Z,99953.55
2023-05-15T09:54:03.697Z,99953.14
2023-05-15T09:55:09.028Z,99949.52
2023-05-15T09:56:14.324Z,99948.92
2023-05-15T09:57:19.655Z,99946.08
2023-05-15T09:58:25.060Z,99956.89
2023-05-15T09:59:30.439Z,99951.03
2023-05-15T10:00:35.791Z,99953.14
2023-05-15T10:01:53.243Z,99955.63
2023-05-15T10:02:58.993Z,99949.12
2023-05-15T10:04:04.318Z,99942.47
2023-05-15T10:05:09.805Z,99948.19
2023-05-15T10:06:15.321Z,99948.02
2023-05-15T10:07:20.794Z,99945.55
2023-05-15T10:08:26.115Z,99946.35
2023-05-15T10:09:31.484Z,99945.91
2023-05-15T10:10:36.871Z,99948.7
2023-05-15T10:11:42.237Z,99943.34
2023-05-15T10:12:49.661Z,99945.55
2023-05-15T10:13:54.977Z,99944.58
2023-05-15T10:15:00.463Z,99941.32
2023-05-15T10:16:05.857Z,99944.91
2023-05-15T10:17:11.313Z,99939.54
2023-05-15T10:18:16.650Z,99941.08
2023-05-15T10:19:22.183Z,99945.02
2023-05-15T10:20:28.406Z,99947.53
2023-05-15T10:21:33.704Z,99946.48
2023-05-15T10:22:38.997Z,99944.73
2023-05-15T10:23:44.351Z,99940.3
2023-05-15T10:24:49.636Z,99940.7
2023-05-15T10:25:54.947Z,99934.61
2023-05-15T10:27:00.273Z,99942.53
2023-05-15T10:28:05.574Z,99939.69
2023-05-15T10:29:10.881Z,99935.23
2023-05-15T10:30:16.244Z,99935.83
2023-05-15T10:31:21.680Z,99939.17
2023-05-15T10:32:27.155Z,99945.46
2023-05-15T10:33:32.545Z,99935.42
2023-05-15T10:34:37.898Z,99939.45
2023-05-15T10:35:43.200Z,99933.02
2023-05-15T10:36:48.567Z,99933.76
2023-05-15T10:37:53.882Z,99934.13
2023-05-15T10:38:59.207Z,99931.52
2023-05-15T10:40:04.513Z,99933.38
2023-05-15T10:41:19.009Z,99933.8
2023-05-15T10:42:24.334Z,99926.2
2023-05-15T10:43:29.641Z,99926.2
2023-05-15T10:44:34.934Z,99930.78
2023-05-15T10:45:40.250Z,99923.95
2023-05-15T10:46:45.650Z,99930.13
2023-05-15T10:47:51.234Z,99925.42
2023-05-15T10:48:56.670Z,99924.97
2023-05-15T10:50:01.982Z,99920.75
2023-05-15T10:51:07.475Z,99920.09
2023-05-15T10:52:15.077Z,99925.82
2023-05-15T10:53:20.378Z,99921.31
2023-05-15T10:54:27.651Z,99920.18
2023-05-15T10:55:33.162Z,99922.73
2023-05-15T10:56:38.522Z,99923.88
2023-05-15T10:57:43.853Z,99921.19
2023-05-15T10:58:49.171Z,99916.44
2023-05-15T10:59:54.549Z,99917.45
2023-05-15T11:00:59.967Z,99912.01
2023-05-15T11:02:05.386Z,99919.2
2023-05-15T11:03:10.804Z,99910.58
2023-05-15T11:04:16.226Z,99912.74
2023-05-15T11:05:21.664Z,99915.83
2023-05-15T11:06:26.983Z,99915.02
2023-05-15T11:07:32.334Z,99912.5
2023-05-15T11:08:37.679Z,99914.11
2023-05-15T11:09:43.027Z,99917.86
2023-05-15T11:10:48.365Z,99918.88
2023-05-15T11:11:54.024Z,99910.34
2023-05-15T11:12:59.349Z,99911.77
2023-05-15T11:14:04.682Z,99909.69
2023-05-15T11:15:10.013Z,99906.27
2023-05-15T11:16:15.635Z,99905.02
2023-05-15T11:17:21.041Z,99902.58
2023-05-15T11:18:26.340Z,99900.63
2023-05-15T11:19:31.832Z,99895.27
2023-05-15T11:20:38.555Z,99902.17
2023-05-15T11:21:43.876Z,99897.05
2023-05-15T11:22:50.264Z,99901.32
2023-05-15T11:23:55.606Z,99894.7
2023-05-15T11:25:00.934Z,99903.67
2023-05-15T11:26:06.271Z,99899.25
2023-05-15T11:27:11.641Z,99894.7
2023-05-15T11:28:16.968Z,99893.28
2023-05-15T11:29:22.386Z,99893.23
2023-05-15T11:30:28.046Z,99892.55
2023-05-15T11:31:33.572Z,99892.14
2023-05-15T11:32:39.103Z,99888.28
2023-05-15T11:33:44.493Z,99888.94
2023-05-15T11:34:49.814Z,99884.34
2023-05-15T11:35:55.201Z,99887.02
2023-05-15T11:37:00.516Z,99885.19
2023-05-15T11:38:05.945Z,99883.98
2023-05-15T11:39:11.306Z,99881.22
2023-05-15T11:40:16.613Z,99880.53
2023-05-15T11:41:22.085Z,99879.52
2023-05-15T11:42:27.487Z,99880.61
2023-05-15T11:43:32.846Z,99876.95
2023-05-15T11:44:38.145Z,99874.8
2023-05-15T11:45:43.444Z,99872.36
2023-05-15T11:46:48.825Z,99875.45
2023-05-15T11:47:54.667Z,99871.92
2023-05-15T11:49:01.519Z,99873.5
2023-05-15T11:50:06.805Z,99870.33
2023-05-15T11:51:12.116Z,99866.31
2023-05-15T11:52:17.426Z,99866.8
2023-05-15T11:53:22.690Z,99860.11
2023-05-15T11:54:29.084Z,99865.14
2023-05-15T11:55:34.523Z,99871.02
2023-05-15T11:56:39.803Z,99867.66
2023-05-15T11:57:45.094Z,99864.2
2023-05-15T11:58:50.450Z,99867.21
2023-05-15T11:59:55.985Z,99870.63
2023-05-15T12:01:01.433Z,99860.62
2023-05-15T12:02:06.836Z,99861.31
2023-05-15T12:03:12.472Z,99865.5
2023-05-15T12:04:18.761Z,99862.41
2023-05-15T12:05:24.631Z,99861.4
2023-05-15T12:06:29.963Z,99854.65
2023-05-15T12:07:35.325Z,99853.72
2023-05-15T12:08:40.666Z,99853.97
2023-05-15T12:09:45.994Z,99858.19
2023-05-15T12:10:51.321Z,99853.16
2023-05-15T12:11:56.627Z,99857.05
2023-05-15T12:13:01.919Z,99858.15
2023-05-15T12:14:07.232Z,99852.38
2023-05-15T12:15:12.556Z,99853.52
2023-05-15T12:16:18.002Z,99850.02
2023-05-15T12:17:23.416Z,99851.04
2023-05-15T12:18:28.820Z,99847.02
2023-05-15T12:19:34.164Z,99853.2
2023-05-15T12:20:39.464Z,99844.42
2023-05-15T12:21:44.758Z,99848.77
2023-05-15T12:22:50.227Z,99853.11
2023-05-15T12:24:08.484Z,99844.83
2023-05-15T12:25:13.860Z,99847.27
2023-05-15T12:26:19.218Z,99844.02
2023-05-15T12:27:24.600Z,99843.41
2023-05-15T12:28:29.953Z,99842.34
2023-05-15T12:29:35.278Z,99843.48
2023-05-15T12:30:40.587Z,99844.66
2023-05-15T12:31:45.966Z,99842.06
2023-05-15T12:32:51.719Z,99837.36
2023-05-15T12:33:57.181Z,99831.44
2023-05-15T12:35:02.509Z,99841.14
2023-05-15T12:36:10.898Z,99836.22